Time;durP1;ratioP1;P1;durP2;ratioP2;P2;SDS_P1;SDS_P2;PMS_P1;PMS_P2;Temp;Humidity;BMP_temperature;BMP_pressure;BME280_temperature;BME280_humidity;BME280_pressure;Samples;Min_cycle;Max_cycle;Signal;HPM_P1;HPM_P2
2021/12/04 00:01:11;;;;;;;32.93;11.97;;;;;;;;;;4991512;28;20222;-64
2021/12/04 00:03:40;;;;;;;28.77;12.57;;;;;;;;;;5007183;28;20645;-64
2021/12/04 00:06:18;;;;;;;28.83;10.23;;;;;;;;;;4992572;28;20328;-63
2021/12/04 00:08:47;;;;;;;28.10;11.47;;;;;;;;;;4994598;28;20186;-63
2021/12/04 00:11:15;;;;;;;24.47;11.47;;;;;;;;;;4996313;28;20202;-63
2021/12/04 00:13:42;;;;;;;21.23;10.07;;;;;;;;;;4996225;28;20208;-64
2021/12/04 00:16:10;;;;;;;26.40;11.33;;;;;;;;;;4996127;28;20549;-64
2021/12/04 00:18:38;;;;;;;25.93;10.97;;;;;;;;;;4996298;28;20210;-67
2021/12/04 00:21:05;;;;;;;20.73;9.47;;;;;;;;;;4995813;28;20221;-64
2021/12/04 00:23:32;;;;;;;23.23;10.93;;;;;;;;;;4996000;28;20691;-63
2021/12/04 00:26:00;;;;;;;24.93;10.70;;;;;;;;;;4995961;28;20252;-64
2021/12/04 00:28:27;;;;;;;27.77;10.70;;;;;;;;;;4996019;28;20210;-64
2021/12/04 00:30:55;;;;;;;30.90;11.83;;;;;;;;;;4996238;28;20206;-64
2021/12/04 00:33:28;;;;;;;25.77;11.03;;;;;;;;;;4995871;28;20206;-63
2021/12/04 00:36:01;;;;;;;25.80;10.97;;;;;;;;;;4996193;28;20190;-63
2021/12/04 00:51:54;;;;;;;26.63;11.50;;;;;;;;;;4995310;28;20286;-63
2021/12/04 00:54:23;;;;;;;30.73;12.13;;;;;;;;;;4994509;28;20534;-63
2021/12/04 00:56:52;;;;;;;34.97;14.53;;;;;;;;;;4995605;28;20209;-63
2021/12/04 00:59:20;;;;;;;33.43;13.87;;;;;;;;;;4995456;28;20579;-63
2021/12/04 01:01:48;;;;;;;31.10;14.07;;;;;;;;;;4977916;28;20234;-64
2021/12/04 01:04:18;;;;;;;34.63;12.83;;;;;;;;;;4994048;28;20234;-64
2021/12/04 01:06:46;;;;;;;30.27;11.73;;;;;;;;;;4995437;28;20190;-63
2021/12/04 01:09:15;;;;;;;34.50;13.80;;;;;;;;;;4995286;28;20206;-65
2021/12/04 01:11:44;;;;;;;29.97;13.03;;;;;;;;;;4995355;28;20249;-64
2021/12/04 01:14:14;;;;;;;38.13;12.80;;;;;;;;;;4993784;28;20206;-65
2021/12/04 01:16:42;;;;;;;29.97;12.00;;;;;;;;;;4994075;28;20190;-64
2021/12/04 01:19:10;;;;;;;28.47;12.23;;;;;;;;;;4994196;28;20676;-64
2021/12/04 01:21:37;;;;;;;27.73;11.50;;;;;;;;;;4994013;28;21634;-63
2021/12/04 01:24:04;;;;;;;29.30;12.57;;;;;;;;;;4994380;28;20202;-66
2021/12/04 01:26:32;;;;;;;24.70;12.00;;;;;;;;;;4994806;28;20294;-67
2021/12/04 01:28:59;;;;;;;32.23;13.93;;;;;;;;;;4993906;28;20653;-64
2021/12/04 01:31:26;;;;;;;37.67;13.90;;;;;;;;;;4994847;28;20731;-64
2021/12/04 01:33:54;;;;;;;39.00;14.47;;;;;;;;;;4994625;28;20209;-65
2021/12/04 01:36:21;;;;;;;34.27;14.40;;;;;;;;;;4994560;28;20285;-63
2021/12/04 01:38:48;;;;;;;29.70;11.73;;;;;;;;;;4994844;28;20202;-64
2021/12/04 01:41:16;;;;;;;33.50;12.07;;;;;;;;;;4994560;28;20272;-64
2021/12/04 01:43:44;;;;;;;25.87;12.47;;;;;;;;;;4993561;28;20224;-64
2021/12/04 01:46:11;;;;;;;32.23;12.20;;;;;;;;;;4994691;28;20198;-64
2021/12/04 01:48:38;;;;;;;31.97;11.87;;;;;;;;;;4993143;28;20228;-64
2021/12/04 01:51:05;;;;;;;27.83;12.27;;;;;;;;;;4994477;28;20298;-63
2021/12/04 01:53:33;;;;;;;31.07;12.10;;;;;;;;;;4994257;28;20720;-64
2021/12/04 01:56:01;;;;;;;28.47;11.53;;;;;;;;;;4994520;28;20202;-63
2021/12/04 01:58:29;;;;;;;37.80;13.77;;;;;;;;;;4994414;28;20209;-63
2021/12/04 02:00:57;;;;;;;34.23;13.60;;;;;;;;;;4993334;28;20225;-64
2021/12/04 02:03:25;;;;;;;30.87;12.77;;;;;;;;;;4993694;28;20256;-64
2021/12/04 02:05:52;;;;;;;28.20;12.50;;;;;;;;;;4993365;28;20292;-68
2021/12/04 02:08:22;;;;;;;31.80;12.80;;;;;;;;;;4993995;28;21099;-64
2021/12/04 02:10:54;;;;;;;37.03;15.73;;;;;;;;;;4994211;28;20202;-66
2021/12/04 02:13:21;;;;;;;34.67;14.13;;;;;;;;;;4992672;28;20210;-64
2021/12/04 02:15:49;;;;;;;33.60;14.57;;;;;;;;;;4993974;28;20202;-65
2021/12/04 02:18:18;;;;;;;34.33;13.13;;;;;;;;;;4993944;28;20257;-64
2021/12/04 02:20:46;;;;;;;32.70;12.07;;;;;;;;;;4993800;28;20218;-64
2021/12/04 02:23:13;;;;;;;29.13;12.33;;;;;;;;;;4993856;28;20226;-64
2021/12/04 02:25:41;;;;;;;36.90;12.80;;;;;;;;;;4993756;28;20672;-64
2021/12/04 02:28:10;;;;;;;28.03;12.77;;;;;;;;;;4993949;28;20206;-65
2021/12/04 02:30:41;;;;;;;31.87;13.63;;;;;;;;;;4993430;28;20665;-64
2021/12/04 02:33:12;;;;;;;28.17;13.57;;;;;;;;;;4993600;28;20193;-63
2021/12/04 02:35:42;;;;;;;36.13;16.43;;;;;;;;;;4993734;28;20190;-63
2021/12/04 02:38:10;;;;;;;42.53;16.93;;;;;;;;;;4992692;28;20197;-63
2021/12/04 02:40:37;;;;;;;44.67;16.63;;;;;;;;;;4993585;28;20198;-64
2021/12/04 02:43:05;;;;;;;34.90;15.17;;;;;;;;;;4993643;28;20206;-63
2021/12/04 02:45:32;;;;;;;34.60;16.20;;;;;;;;;;4993707;28;20206;-64
2021/12/04 02:47:59;;;;;;;49.40;20.23;;;;;;;;;;4993867;28;20198;-64
2021/12/04 02:50:26;;;;;;;38.30;17.17;;;;;;;;;;4993545;28;20599;-63
2021/12/04 02:52:54;;;;;;;41.13;17.13;;;;;;;;;;4993407;28;20536;-63
2021/12/04 02:55:21;;;;;;;37.20;15.93;;;;;;;;;;4992414;28;20269;-64
2021/12/04 02:57:48;;;;;;;36.80;17.10;;;;;;;;;;4993607;28;20317;-64
2021/12/04 03:00:18;;;;;;;40.63;17.60;;;;;;;;;;4993589;28;20202;-64
2021/12/04 03:02:46;;;;;;;38.67;17.87;;;;;;;;;;4992076;28;20584;-64
2021/12/04 03:05:20;;;;;;;55.27;21.03;;;;;;;;;;4992939;28;20265;-63
2021/12/04 03:07:48;;;;;;;49.83;22.50;;;;;;;;;;4993339;28;20193;-63
2021/12/04 03:10:15;;;;;;;44.20;18.90;;;;;;;;;;4993373;28;20206;-68
2021/12/04 03:12:42;;;;;;;45.87;19.80;;;;;;;;;;4993367;28;20206;-63
2021/12/04 03:15:10;;;;;;;61.83;22.73;;;;;;;;;;4993130;28;20201;-63
2021/12/04 03:17:38;;;;;;;39.53;19.27;;;;;;;;;;4993269;28;20248;-64
2021/12/04 03:20:06;;;;;;;37.70;17.90;;;;;;;;;;4993190;28;20202;-63
2021/12/04 03:22:34;;;;;;;41.10;19.20;;;;;;;;;;4993034;28;20225;-63
2021/12/04 03:25:01;;;;;;;39.00;19.53;;;;;;;;;;4992911;28;20571;-63
2021/12/04 03:27:31;;;;;;;42.80;19.47;;;;;;;;;;4993379;28;20636;-69
2021/12/04 03:30:01;;;;;;;39.00;19.63;;;;;;;;;;4993501;28;20198;-63
2021/12/04 03:35:18;;;;;;;41.73;20.70;;;;;;;;;;4993275;28;20191;-64
2021/12/04 03:43:07;;;;;;;57.50;24.30;;;;;;;;;;4993429;28;20581;-64
2021/12/04 03:45:37;;;;;;;40.20;21.27;;;;;;;;;;4996990;28;20190;-64
2021/12/04 03:48:39;;;;;;;42.27;21.57;;;;;;;;;;4996982;28;20218;-67
2021/12/04 03:51:03;;;;;;;54.97;26.90;;;;;;;;;;4996664;28;20537;-64
2021/12/04 03:53:31;;;;;;;44.37;21.43;;;;;;;;;;4996651;28;20296;-64
2021/12/04 03:55:59;;;;;;;38.27;20.00;;;;;;;;;;4996795;28;20205;-63
2021/12/04 03:58:26;;;;;;;40.53;20.90;;;;;;;;;;4996685;28;20205;-68
2021/12/04 04:00:54;;;;;;;42.20;20.37;;;;;;;;;;4996340;28;20776;-63
2021/12/04 04:03:25;;;;;;;44.00;19.87;;;;;;;;;;4995161;28;20657;-64
2021/12/04 04:05:52;;;;;;;37.83;19.43;;;;;;;;;;4996123;28;20240;-64
2021/12/04 04:08:20;;;;;;;41.10;19.87;;;;;;;;;;4996583;28;20206;-65
2021/12/04 04:10:50;;;;;;;41.50;21.37;;;;;;;;;;4996502;28;20210;-63
2021/12/04 04:13:17;;;;;;;62.30;23.87;;;;;;;;;;4996189;28;20202;-67
2021/12/04 04:15:44;;;;;;;46.97;21.50;;;;;;;;;;4996496;28;20206;-63
2021/12/04 04:18:12;;;;;;;45.17;21.17;;;;;;;;;;4996175;28;20202;-65
2021/12/04 04:20:39;;;;;;;37.43;20.00;;;;;;;;;;4996380;28;20206;-63
2021/12/04 04:23:06;;;;;;;44.87;22.63;;;;;;;;;;4995794;28;20213;-63
2021/12/04 04:25:34;;;;;;;39.27;20.20;;;;;;;;;;4996052;28;20224;-64
2021/12/04 04:28:01;;;;;;;38.40;19.30;;;;;;;;;;4996173;28;20202;-63
2021/12/04 04:30:29;;;;;;;37.93;18.20;;;;;;;;;;4994879;28;20210;-64
2021/12/04 04:32:56;;;;;;;38.73;18.10;;;;;;;;;;4995933;28;20680;-64
2021/12/04 04:35:26;;;;;;;40.60;18.27;;;;;;;;;;4995604;28;20202;-67
2021/12/04 05:02:27;;;;;;;36.67;15.57;;;;;;;;;;4995753;28;20218;-64
2021/12/04 05:10:38;;;;;;;33.10;15.70;;;;;;;;;;4995382;28;20199;-65
2021/12/04 05:13:08;;;;;;;29.00;14.30;;;;;;;;;;4995253;28;20524;-64
2021/12/04 05:20:55;;;;;;;30.37;14.07;;;;;;;;;;4993832;28;20668;-64
2021/12/04 05:23:23;;;;;;;27.47;12.73;;;;;;;;;;4995081;28;20221;-63
2021/12/04 05:25:50;;;;;;;29.53;12.73;;;;;;;;;;4994831;28;20206;-67
2021/12/04 05:28:18;;;;;;;26.47;13.37;;;;;;;;;;4994912;28;20261;-64
2021/12/04 05:30:45;;;;;;;31.90;14.67;;;;;;;;;;4995079;28;20232;-64
2021/12/04 05:33:13;;;;;;;28.40;13.63;;;;;;;;;;4994768;28;20257;-64
2021/12/04 05:35:40;;;;;;;23.53;12.13;;;;;;;;;;4994986;28;20198;-64
2021/12/04 05:38:07;;;;;;;65.63;36.17;;;;;;;;;;4995034;28;20260;-64
2021/12/04 05:40:35;;;;;;;114.73;68.30;;;;;;;;;;4994767;28;20233;-63
2021/12/04 05:43:03;;;;;;;79.63;52.63;;;;;;;;;;4994274;28;20221;-64
2021/12/04 05:45:37;;;;;;;61.63;40.07;;;;;;;;;;4994214;28;20206;-64
2021/12/04 05:48:51;;;;;;;35.70;24.33;;;;;;;;;;4994540;28;20211;-69
2021/12/04 05:51:20;;;;;;;42.00;20.90;;;;;;;;;;4989376;28;20206;-65
2021/12/04 05:56:19;;;;;;;31.47;15.87;;;;;;;;;;4994212;28;20562;-64
2021/12/04 05:58:47;;;;;;;24.57;12.77;;;;;;;;;;4994415;28;20213;-65
2021/12/04 06:01:16;;;;;;;24.53;12.43;;;;;;;;;;4994185;28;20203;-64
2021/12/04 06:03:44;;;;;;;33.60;14.87;;;;;;;;;;4994029;28;20236;-64
2021/12/04 06:06:11;;;;;;;33.83;15.93;;;;;;;;;;4993140;28;20252;-65
2021/12/04 06:08:39;;;;;;;28.87;13.27;;;;;;;;;;4992483;28;20202;-65
2021/12/04 06:11:07;;;;;;;25.17;11.67;;;;;;;;;;4992451;28;20616;-66
2021/12/04 06:13:35;;;;;;;31.17;13.47;;;;;;;;;;4992534;28;20202;-66
2021/12/04 06:16:02;;;;;;;29.37;13.40;;;;;;;;;;4991816;28;20301;-65
2021/12/04 06:18:31;;;;;;;30.80;14.33;;;;;;;;;;4988800;28;20205;-65
2021/12/04 06:23:40;;;;;;;71.57;25.20;;;;;;;;;;4984013;28;20233;-65
2021/12/04 06:26:09;;;;;;;48.97;19.47;;;;;;;;;;4989297;28;20276;-67
2021/12/04 06:28:37;;;;;;;36.70;16.07;;;;;;;;;;4990121;28;20226;-69
2021/12/04 06:31:07;;;;;;;39.37;20.93;;;;;;;;;;4990782;28;20269;-69
2021/12/04 06:33:36;;;;;;;43.70;21.10;;;;;;;;;;4990421;28;20324;-72
2021/12/04 06:36:05;;;;;;;36.70;16.63;;;;;;;;;;4989590;28;20232;-70
2021/12/04 06:38:34;;;;;;;27.83;14.77;;;;;;;;;;4987129;28;20218;-70
2021/12/04 06:41:02;;;;;;;27.43;12.17;;;;;;;;;;4990658;28;20237;-67
2021/12/04 06:43:29;;;;;;;139.97;38.00;;;;;;;;;;4991451;28;20597;-69
2021/12/04 06:45:59;;;;;;;152.63;40.33;;;;;;;;;;5006583;28;20913;-67
2021/12/04 06:48:38;;;;;;;51.93;21.43;;;;;;;;;;4992388;28;20218;-68
2021/12/04 06:51:14;;;;;;;23.77;12.27;;;;;;;;;;4990034;28;20304;-67
2021/12/04 06:53:48;;;;;;;31.60;17.17;;;;;;;;;;4991477;28;20229;-63
2021/12/04 06:56:16;;;;;;;36.03;12.20;;;;;;;;;;4992513;28;20261;-67
2021/12/04 06:58:44;;;;;;;29.70;11.93;;;;;;;;;;4991275;28;20784;-68
2021/12/04 07:01:11;;;;;;;41.23;15.17;;;;;;;;;;4991140;28;20245;-67
2021/12/04 07:03:39;;;;;;;24.33;10.93;;;;;;;;;;4991298;28;20716;-66
2021/12/04 07:06:07;;;;;;;38.83;18.23;;;;;;;;;;4989578;28;20662;-67
2021/12/04 07:08:34;;;;;;;24.10;10.77;;;;;;;;;;4990771;28;20697;-68
2021/12/04 07:11:04;;;;;;;26.50;11.23;;;;;;;;;;4990563;28;20214;-65
2021/12/04 07:13:33;;;;;;;28.33;11.17;;;;;;;;;;4990217;28;20278;-66
2021/12/04 07:16:07;;;;;;;25.87;10.80;;;;;;;;;;4990256;28;20257;-65
2021/12/04 07:18:38;;;;;;;23.40;11.03;;;;;;;;;;4992597;28;20217;-65
2021/12/04 07:21:05;;;;;;;20.93;9.47;;;;;;;;;;4993190;28;20237;-67
2021/12/04 07:23:34;;;;;;;20.17;9.23;;;;;;;;;;4990909;28;20237;-63
2021/12/04 07:26:05;;;;;;;29.70;12.70;;;;;;;;;;4993816;28;20230;-65
2021/12/04 07:28:33;;;;;;;21.47;9.87;;;;;;;;;;4992558;28;20225;-66
2021/12/04 07:31:03;;;;;;;45.17;15.83;;;;;;;;;;4992993;28;20272;-65
2021/12/04 07:33:31;;;;;;;25.20;10.40;;;;;;;;;;4993138;28;20325;-66
2021/12/04 07:35:59;;;;;;;21.10;10.40;;;;;;;;;;4993273;28;20356;-65
2021/12/04 07:38:28;;;;;;;20.10;9.50;;;;;;;;;;4994087;28;20222;-66
2021/12/04 07:40:58;;;;;;;25.77;11.33;;;;;;;;;;4995337;28;20225;-64
2021/12/04 07:43:25;;;;;;;18.37;9.43;;;;;;;;;;4988457;28;20222;-65
2021/12/04 07:45:53;;;;;;;23.37;11.33;;;;;;;;;;4995580;28;20218;-65
2021/12/04 07:48:20;;;;;;;18.67;8.60;;;;;;;;;;4995343;28;20850;-64
2021/12/04 07:50:49;;;;;;;19.40;10.07;;;;;;;;;;4995464;28;20567;-65
2021/12/04 07:53:16;;;;;;;94.40;53.83;;;;;;;;;;4995554;28;20253;-66
2021/12/04 07:55:44;;;;;;;19.83;9.53;;;;;;;;;;4992764;28;20289;-65
2021/12/04 07:58:13;;;;;;;23.37;10.57;;;;;;;;;;4995546;28;20198;-65
2021/12/04 08:00:41;;;;;;;28.77;14.47;;;;;;;;;;4995133;28;20235;-65
2021/12/04 08:03:08;;;;;;;19.83;9.80;;;;;;;;;;4995379;28;20229;-66
2021/12/04 08:05:46;;;;;;;16.53;8.80;;;;;;;;;;4992134;28;20272;-65
2021/12/04 08:08:13;;;;;;;19.87;11.23;;;;;;;;;;4994706;28;20225;-65
2021/12/04 08:10:45;;;;;;;19.20;9.13;;;;;;;;;;4991444;28;20213;-69
2021/12/04 08:13:17;;;;;;;31.67;12.60;;;;;;;;;;4994576;28;20716;-64
2021/12/04 08:15:44;;;;;;;26.63;14.70;;;;;;;;;;4992746;28;20285;-65
2021/12/04 08:18:18;;;;;;;22.87;13.13;;;;;;;;;;4995272;28;20206;-65
2021/12/04 08:20:45;;;;;;;24.93;13.00;;;;;;;;;;5010245;28;20257;-66
2021/12/04 08:23:12;;;;;;;29.73;19.13;;;;;;;;;;4995163;28;20225;-66
2021/12/04 08:25:43;;;;;;;23.50;12.33;;;;;;;;;;5007313;28;20198;-65
2021/12/04 08:28:10;;;;;;;19.07;10.00;;;;;;;;;;4994274;28;20206;-65
2021/12/04 08:30:40;;;;;;;75.17;31.03;;;;;;;;;;4993828;28;20213;-65
2021/12/04 08:33:10;;;;;;;115.97;37.30;;;;;;;;;;4993832;28;20661;-65
2021/12/04 08:35:40;;;;;;;31.60;17.37;;;;;;;;;;4994522;28;20198;-65
2021/12/04 08:38:10;;;;;;;113.57;34.43;;;;;;;;;;4991901;28;20201;-65
2021/12/04 08:40:38;;;;;;;56.40;21.80;;;;;;;;;;4994402;28;20203;-65
2021/12/04 08:43:07;;;;;;;41.57;15.30;;;;;;;;;;4993688;28;20253;-65
2021/12/04 08:45:35;;;;;;;74.80;24.67;;;;;;;;;;4994575;28;20206;-64
2021/12/04 08:48:03;;;;;;;28.83;12.87;;;;;;;;;;4994821;28;20205;-65
2021/12/04 08:50:31;;;;;;;27.47;12.23;;;;;;;;;;4994734;28;20202;-66
2021/12/04 08:53:00;;;;;;;39.27;14.80;;;;;;;;;;4993804;28;20214;-69
2021/12/04 08:55:29;;;;;;;37.33;15.00;;;;;;;;;;4976590;28;20201;-67
2021/12/04 08:57:58;;;;;;;19.77;9.63;;;;;;;;;;4993519;28;20290;-67
2021/12/04 09:00:28;;;;;;;52.27;20.70;;;;;;;;;;4991700;28;20205;-66
2021/12/04 09:02:57;;;;;;;56.90;22.33;;;;;;;;;;5082794;22;20603;-69
2021/12/04 09:05:27;;;;;;;31.37;15.00;;;;;;;;;;4995020;28;20228;-69
2021/12/04 09:07:54;;;;;;;26.43;12.13;;;;;;;;;;4976897;28;20672;-71
2021/12/04 09:10:22;;;;;;;25.40;12.53;;;;;;;;;;4994507;28;20198;-70
2021/12/04 09:12:50;;;;;;;19.33;10.57;;;;;;;;;;4994717;28;20282;-70
2021/12/04 09:15:24;;;;;;;21.17;10.90;;;;;;;;;;4987938;28;20731;-70
2021/12/04 09:17:52;;;;;;;22.20;9.60;;;;;;;;;;4993955;28;20300;-70
2021/12/04 09:20:19;;;;;;;20.77;10.13;;;;;;;;;;4993935;28;20589;-72
2021/12/04 09:22:47;;;;;;;23.47;10.30;;;;;;;;;;4994239;28;20238;-71
2021/12/04 09:25:22;;;;;;;19.67;8.63;;;;;;;;;;4991862;28;20237;-74
2021/12/04 10:21:10;;;;;;;16.40;7.87;;;;;;;;;;5148628;27;20231;-71
2021/12/04 10:34:45;;;;;;;14.50;6.50;;;;;;;;;;5148016;27;20223;-70
2021/12/04 10:37:24;;;;;;;13.13;6.13;;;;;;;;;;5149597;27;20197;-72
2021/12/04 10:39:57;;;;;;;15.53;8.03;;;;;;;;;;5151107;27;20192;-74
2021/12/04 10:42:34;;;;;;;13.87;7.30;;;;;;;;;;5149455;27;20216;-70
2021/12/04 10:45:03;;;;;;;20.93;8.63;;;;;;;;;;5159235;27;20189;-70
2021/12/04 10:47:31;;;;;;;20.40;9.13;;;;;;;;;;5150752;27;20197;-70
2021/12/04 10:52:58;;;;;;;18.27;9.03;;;;;;;;;;5150661;27;20192;-71
2021/12/04 10:55:38;;;;;;;19.10;9.87;;;;;;;;;;5157744;27;20193;-71
2021/12/04 11:04:18;;;;;;;15.17;7.33;;;;;;;;;;5152365;27;20193;-71
2021/12/04 11:38:55;;;;;;;21.10;9.97;;;;;;;;;;5125632;27;20312;-78
2021/12/04 11:41:31;;;;;;;21.27;9.23;;;;;;;;;;5123124;27;20228;-72
2021/12/04 11:44:04;;;;;;;21.50;10.90;;;;;;;;;;5122925;27;20216;-72
2021/12/04 11:46:42;;;;;;;25.07;11.37;;;;;;;;;;5120121;27;20267;-72
2021/12/04 11:49:19;;;;;;;23.27;9.53;;;;;;;;;;5113454;28;20257;-75
2021/12/04 11:52:01;;;;;;;19.30;9.40;;;;;;;;;;5114915;27;20743;-71
2021/12/04 11:54:31;;;;;;;21.13;9.93;;;;;;;;;;5115164;28;20316;-70
2021/12/04 11:57:04;;;;;;;17.83;9.00;;;;;;;;;;5114818;27;20230;-71
2021/12/04 11:59:34;;;;;;;18.40;9.47;;;;;;;;;;5114673;28;20257;-71
2021/12/04 12:02:04;;;;;;;30.83;12.73;;;;;;;;;;5114202;27;20273;-71
2021/12/04 12:04:45;;;;;;;21.43;9.03;;;;;;;;;;5113863;28;20226;-75
2021/12/04 12:07:19;;;;;;;17.67;9.10;;;;;;;;;;5114264;27;20222;-73
2021/12/04 12:09:49;;;;;;;17.50;8.33;;;;;;;;;;5114799;28;20283;-74
2021/12/04 12:12:18;;;;;;;15.37;8.33;;;;;;;;;;5112440;27;20650;-75
2021/12/04 12:14:54;;;;;;;16.60;8.20;;;;;;;;;;5113964;28;20628;-74
2021/12/04 12:17:38;;;;;;;16.43;8.10;;;;;;;;;;5133251;27;20714;-75
2021/12/04 12:20:11;;;;;;;18.33;10.00;;;;;;;;;;5134739;27;20611;-72
2021/12/04 12:25:18;;;;;;;16.57;8.63;;;;;;;;;;5133590;27;20239;-78
2021/12/04 12:36:03;;;;;;;19.00;8.40;;;;;;;;;;5121535;27;20712;-75
2021/12/04 12:38:47;;;;;;;15.93;8.00;;;;;;;;;;5122776;27;20218;-75
2021/12/04 12:41:28;;;;;;;14.43;7.03;;;;;;;;;;5123392;27;20238;-75
2021/12/04 12:44:13;;;;;;;17.37;8.10;;;;;;;;;;5124484;27;20275;-74
2021/12/04 12:46:55;;;;;;;13.10;7.03;;;;;;;;;;5122057;27;20221;-74
2021/12/04 12:49:25;;;;;;;45.93;16.30;;;;;;;;;;5121791;27;20258;-74
2021/12/04 12:51:57;;;;;;;30.47;12.53;;;;;;;;;;5123879;27;20249;-74
2021/12/04 12:54:35;;;;;;;28.33;9.90;;;;;;;;;;5124590;27;20209;-74
2021/12/04 12:57:22;;;;;;;28.07;15.20;;;;;;;;;;5122827;27;20236;-74
2021/12/04 13:11:46;;;;;;;14.33;6.60;;;;;;;;;;5124192;27;20237;-75
2021/12/04 13:14:19;;;;;;;13.40;6.70;;;;;;;;;;5124990;27;20228;-70
2021/12/04 13:17:06;;;;;;;16.83;7.40;;;;;;;;;;5121826;27;20232;-69
2021/12/04 13:19:37;;;;;;;13.80;6.77;;;;;;;;;;5124724;27;20715;-71
2021/12/04 13:22:14;;;;;;;21.77;11.03;;;;;;;;;;5126978;27;20244;-69
2021/12/04 13:24:42;;;;;;;26.87;10.50;;;;;;;;;;5124092;27;20586;-71
2021/12/04 13:29:51;;;;;;;25.63;11.43;;;;;;;;;;5120742;27;20228;-72
2021/12/04 13:32:29;;;;;;;16.53;7.93;;;;;;;;;;5125931;27;20213;-72
2021/12/04 13:35:03;;;;;;;17.73;8.27;;;;;;;;;;5130127;27;20624;-71
2021/12/04 13:37:31;;;;;;;24.47;9.60;;;;;;;;;;5123365;27;20245;-71
2021/12/04 13:40:04;;;;;;;16.50;8.33;;;;;;;;;;5120702;27;20590;-72
2021/12/04 13:42:33;;;;;;;17.13;8.07;;;;;;;;;;5125139;27;20232;-72
2021/12/04 13:45:01;;;;;;;17.97;8.60;;;;;;;;;;5124943;27;20213;-70
2021/12/04 13:47:29;;;;;;;19.77;8.63;;;;;;;;;;5118919;27;20249;-69
2021/12/04 13:49:57;;;;;;;19.23;8.13;;;;;;;;;;5117055;27;20221;-69
2021/12/04 13:52:28;;;;;;;15.97;8.43;;;;;;;;;;5122057;27;20236;-69
2021/12/04 13:55:05;;;;;;;24.10;11.57;;;;;;;;;;5136813;27;20215;-69
2021/12/04 13:57:38;;;;;;;26.47;10.27;;;;;;;;;;5132242;27;20254;-70
2021/12/04 14:00:06;;;;;;;24.40;10.67;;;;;;;;;;5143561;27;20223;-69
2021/12/04 14:02:33;;;;;;;24.33;12.20;;;;;;;;;;5139755;27;20240;-69
2021/12/04 14:05:07;;;;;;;17.00;9.10;;;;;;;;;;5141759;27;20220;-68
2021/12/04 14:07:34;;;;;;;19.30;10.43;;;;;;;;;;5132272;27;20216;-70
2021/12/04 14:10:15;;;;;;;19.10;9.20;;;;;;;;;;5141674;27;20220;-69
2021/12/04 14:12:43;;;;;;;19.67;9.83;;;;;;;;;;5137715;27;20605;-69
2021/12/04 14:15:12;;;;;;;20.17;10.70;;;;;;;;;;5139081;27;20212;-68
2021/12/04 14:17:40;;;;;;;17.27;9.10;;;;;;;;;;5122561;27;20260;-67
2021/12/04 14:20:08;;;;;;;20.43;8.70;;;;;;;;;;5131132;27;20216;-67
2021/12/04 14:22:47;;;;;;;21.10;9.77;;;;;;;;;;5139509;27;20232;-67
2021/12/04 14:25:15;;;;;;;19.47;9.00;;;;;;;;;;5140233;27;20204;-66
2021/12/04 14:27:44;;;;;;;23.13;12.03;;;;;;;;;;5132481;27;20223;-65
2021/12/04 14:30:22;;;;;;;41.80;14.93;;;;;;;;;;5140996;27;20690;-66
2021/12/04 14:32:53;;;;;;;28.27;10.90;;;;;;;;;;5138676;27;20221;-66
2021/12/04 14:35:27;;;;;;;20.10;10.77;;;;;;;;;;5140171;27;20217;-65
2021/12/04 14:37:56;;;;;;;18.53;8.87;;;;;;;;;;5132563;27;20213;-66
2021/12/04 14:40:33;;;;;;;19.83;11.20;;;;;;;;;;5142301;27;20208;-65
2021/12/04 14:43:02;;;;;;;20.67;10.30;;;;;;;;;;5137809;27;20232;-66
2021/12/04 14:45:33;;;;;;;23.20;10.60;;;;;;;;;;5126584;27;20222;-66
2021/12/04 14:48:05;;;;;;;18.77;9.23;;;;;;;;;;5125442;27;20236;-66
2021/12/04 14:50:33;;;;;;;23.67;10.80;;;;;;;;;;5130288;27;20233;-65
2021/12/04 14:53:02;;;;;;;21.20;9.83;;;;;;;;;;5126341;27;20267;-66
2021/12/04 14:55:33;;;;;;;20.20;10.47;;;;;;;;;;5128607;27;20681;-65
2021/12/04 14:58:04;;;;;;;19.47;10.07;;;;;;;;;;5124610;27;20573;-65
2021/12/04 15:00:38;;;;;;;28.03;13.10;;;;;;;;;;5126341;27;20223;-65
2021/12/04 15:03:10;;;;;;;40.03;13.57;;;;;;;;;;5123814;27;20233;-65
2021/12/04 15:05:44;;;;;;;44.53;15.80;;;;;;;;;;5122635;27;20206;-67
2021/12/04 15:08:22;;;;;;;21.43;11.27;;;;;;;;;;5122550;27;20281;-65
2021/12/04 15:10:59;;;;;;;48.57;24.20;;;;;;;;;;5119359;27;20213;-64
2021/12/04 15:13:30;;;;;;;40.73;24.23;;;;;;;;;;5123890;27;20213;-66
2021/12/04 15:16:03;;;;;;;46.43;26.97;;;;;;;;;;5127698;27;20237;-66
2021/12/04 15:18:36;;;;;;;34.57;19.93;;;;;;;;;;5122569;27;20228;-65
2021/12/04 15:21:26;;;;;;;21.73;11.60;;;;;;;;;;5125603;27;20217;-66
2021/12/04 15:23:57;;;;;;;24.17;12.77;;;;;;;;;;5126436;27;20245;-66
2021/12/04 15:26:25;;;;;;;22.30;11.13;;;;;;;;;;5127215;27;20270;-65
2021/12/04 15:28:54;;;;;;;23.83;11.60;;;;;;;;;;5123242;27;20209;-65
2021/12/04 15:31:24;;;;;;;31.27;14.13;;;;;;;;;;5123289;27;20213;-66
2021/12/04 15:33:55;;;;;;;36.77;17.13;;;;;;;;;;5125318;27;20225;-66
2021/12/04 15:36:36;;;;;;;42.97;20.30;;;;;;;;;;5124005;27;20217;-67
2021/12/04 15:39:33;;;;;;;44.53;21.47;;;;;;;;;;5122455;27;20905;-67
2021/12/04 15:53:02;;;;;;;261.70;102.90;;;;;;;;;;5125018;27;20224;-66
2021/12/04 15:55:37;;;;;;;339.20;124.00;;;;;;;;;;5125233;27;20221;-65
2021/12/04 15:58:11;;;;;;;181.43;94.53;;;;;;;;;;5125340;27;20923;-66
2021/12/04 16:00:46;;;;;;;36.10;20.03;;;;;;;;;;5104992;27;20263;-66
2021/12/04 16:03:16;;;;;;;30.40;14.67;;;;;;;;;;5122534;27;20317;-66
2021/12/04 16:05:57;;;;;;;155.47;65.33;;;;;;;;;;5124174;27;20261;-66
2021/12/04 16:08:29;;;;;;;217.13;59.70;;;;;;;;;;5118729;27;20220;-66
2021/12/04 16:11:14;;;;;;;311.20;92.70;;;;;;;;;;5145032;27;20239;-68
2021/12/04 16:13:51;;;;;;;84.93;43.50;;;;;;;;;;5139076;27;20404;-68
2021/12/04 16:16:23;;;;;;;32.47;16.63;;;;;;;;;;5127440;27;20221;-68
2021/12/04 16:18:57;;;;;;;95.10;34.30;;;;;;;;;;5120150;27;20316;-71
2021/12/04 16:21:25;;;;;;;204.83;56.57;;;;;;;;;;5138405;27;20212;-71
2021/12/04 16:23:54;;;;;;;119.67;39.23;;;;;;;;;;5137911;27;20221;-69
2021/12/04 16:26:24;;;;;;;34.67;18.17;;;;;;;;;;5118244;27;20222;-71
2021/12/04 16:37:31;;;;;;;127.47;43.20;;;;;;;;;;5126733;27;20213;-67
2021/12/04 16:39:59;;;;;;;37.50;21.13;;;;;;;;;;5123731;27;20213;-67
2021/12/04 16:42:27;;;;;;;199.40;74.63;;;;;;;;;;5127159;27;20229;-68
2021/12/04 16:45:23;;;;;;;237.57;78.07;;;;;;;;;;5125910;27;20221;-68
2021/12/04 16:47:53;;;;;;;115.20;35.30;;;;;;;;;;5111579;27;20239;-68
2021/12/04 16:50:24;;;;;;;99.73;32.50;;;;;;;;;;5133979;27;20764;-68
2021/12/04 16:55:48;;;;;;;177.90;105.43;;;;;;;;;;5137248;27;20702;-68
2021/12/04 16:58:18;;;;;;;128.80;39.67;;;;;;;;;;5135362;27;20270;-69
2021/12/04 17:00:49;;;;;;;131.67;43.77;;;;;;;;;;5132635;27;20213;-71
2021/12/04 17:03:18;;;;;;;191.90;77.13;;;;;;;;;;5132568;27;20229;-72
2021/12/04 17:05:46;;;;;;;124.17;37.23;;;;;;;;;;5132280;27;20231;-72
2021/12/04 17:08:14;;;;;;;135.53;46.47;;;;;;;;;;5133125;27;20595;-67
2021/12/04 17:10:43;;;;;;;105.90;53.20;;;;;;;;;;5131963;27;20297;-70
2021/12/04 17:13:10;;;;;;;192.80;64.83;;;;;;;;;;5133245;27;20550;-66
2021/12/04 17:15:44;;;;;;;200.73;67.90;;;;;;;;;;5132721;27;20217;-65
2021/12/04 17:18:16;;;;;;;180.73;63.47;;;;;;;;;;5133201;27;20299;-69
2021/12/04 17:20:46;;;;;;;103.50;33.20;;;;;;;;;;5132666;27;20278;-70
2021/12/04 17:23:14;;;;;;;110.50;37.23;;;;;;;;;;5133117;27;20692;-66
2021/12/04 17:25:42;;;;;;;61.77;25.03;;;;;;;;;;5133171;27;20229;-69
2021/12/04 17:28:11;;;;;;;67.93;36.93;;;;;;;;;;5133482;27;20578;-69
2021/12/04 17:30:39;;;;;;;100.43;58.23;;;;;;;;;;5132527;27;20221;-69
2021/12/04 17:33:07;;;;;;;142.13;48.03;;;;;;;;;;5131847;27;20308;-67
2021/12/04 17:35:35;;;;;;;121.43;44.03;;;;;;;;;;5132821;27;20240;-69
2021/12/04 17:38:04;;;;;;;109.90;38.60;;;;;;;;;;5124396;27;20744;-69
2021/12/04 17:40:34;;;;;;;66.67;26.20;;;;;;;;;;5131558;27;20266;-69
2021/12/04 17:43:04;;;;;;;47.33;22.43;;;;;;;;;;5132587;27;20220;-67
2021/12/04 17:45:33;;;;;;;57.33;25.10;;;;;;;;;;5131953;27;20233;-70
2021/12/04 17:48:05;;;;;;;173.73;94.10;;;;;;;;;;5132823;27;20221;-67
2021/12/04 17:50:40;;;;;;;295.73;122.73;;;;;;;;;;5132698;27;20217;-69
2021/12/04 17:53:08;;;;;;;107.87;42.23;;;;;;;;;;5132956;27;20231;-69
2021/12/04 17:55:38;;;;;;;69.93;30.70;;;;;;;;;;5132610;27;20221;-68
2021/12/04 17:58:06;;;;;;;64.23;26.60;;;;;;;;;;5131659;27;20217;-68
2021/12/04 18:00:47;;;;;;;63.57;34.97;;;;;;;;;;5132061;27;20220;-68
2021/12/04 18:03:18;;;;;;;263.30;142.97;;;;;;;;;;5117658;28;20587;-69
2021/12/04 18:05:50;;;;;;;107.37;39.53;;;;;;;;;;5132569;27;20240;-68
2021/12/04 18:08:19;;;;;;;81.20;33.27;;;;;;;;;;5132647;27;20355;-70
2021/12/04 18:10:49;;;;;;;124.30;44.67;;;;;;;;;;5131837;27;20216;-69
2021/12/04 18:13:20;;;;;;;92.17;37.70;;;;;;;;;;5132651;27;20467;-67